Terminal Aerodrome Forecast
Issued by NWS

Home | Current Version | Previous Version | Graphics & Text | Print | Product List | Glossary On
Versions: 1 2 3 4 5 6 7 8 9 10 11 12 13 14 15 16 17 18 19 20 21 22 23 24 25 26
000
FTUS43 KLOT 180530
TAFGYY
TAF
KGYY 180530Z 1806/1906 21012KT 3SM -DZ BR OVC010 WS020/21045KT
     FM180800 28004KT 1SM -DZ BR OVC004
     FM181200 35008KT 2SM -RADZ BR OVC004
     FM181500 36022G34KT 2SM RA BR BKN005 OVC015
     FM182200 34022G33KT 4SM -RA OVC015
     FM190000 33018G28KT P6SM BKN015=

USA.gov is the U.S. government's official web portal to all federal, state and local government web resources and services.